sensor_id;sensor_type;location;lat;lon;timestamp;P1;durP1;ratioP1;P2;durP2;ratioP2
3541;SDS011;1785;47.388;8.538;2023-12-20T00:00:17;13.70;;;12.40;;
3541;SDS011;1785;47.388;8.538;2023-12-20T00:02:44;14.60;;;13.20;;
3541;SDS011;1785;47.388;8.538;2023-12-20T00:05:12;16.03;;;14.33;;
3541;SDS011;1785;47.388;8.538;2023-12-20T00:07:38;13.63;;;12.30;;
3541;SDS011;1785;47.388;8.538;2023-12-20T00:10:05;14.90;;;13.50;;
3541;SDS011;1785;47.388;8.538;2023-12-20T00:12:36;14.13;;;12.77;;
3541;SDS011;1785;47.388;8.538;2023-12-20T00:15:03;13.40;;;12.20;;
3541;SDS011;1785;47.388;8.538;2023-12-20T00:17:30;14.80;;;13.43;;
3541;SDS011;1785;47.388;8.538;2023-12-20T00:19:56;13.57;;;12.37;;
3541;SDS011;1785;47.388;8.538;2023-12-20T00:22:23;14.03;;;12.47;;
3541;SDS011;1785;47.388;8.538;2023-12-20T00:24:50;14.00;;;12.60;;
3541;SDS011;1785;47.388;8.538;2023-12-20T00:27:16;14.30;;;12.80;;
3541;SDS011;1785;47.388;8.538;2023-12-20T00:29:44;13.53;;;12.33;;
3541;SDS011;1785;47.388;8.538;2023-12-20T00:32:13;13.37;;;12.17;;
3541;SDS011;1785;47.388;8.538;2023-12-20T00:34:39;12.80;;;11.70;;
3541;SDS011;1785;47.388;8.538;2023-12-20T00:37:06;12.07;;;10.97;;
3541;SDS011;1785;47.388;8.538;2023-12-20T00:39:32;12.40;;;11.20;;
3541;SDS011;1785;47.388;8.538;2023-12-20T00:41:59;11.90;;;10.90;;
3541;SDS011;1785;47.388;8.538;2023-12-20T00:44:25;12.47;;;11.33;;
3541;SDS011;1785;47.388;8.538;2023-12-20T00:46:52;12.23;;;11.03;;
3541;SDS011;1785;47.388;8.538;2023-12-20T00:49:19;13.33;;;10.50;;
3541;SDS011;1785;47.388;8.538;2023-12-20T00:51:47;12.73;;;11.40;;
3541;SDS011;1785;47.388;8.538;2023-12-20T00:54:15;14.37;;;12.23;;
3541;SDS011;1785;47.388;8.538;2023-12-20T00:56:42;13.20;;;12.00;;
3541;SDS011;1785;47.388;8.538;2023-12-20T00:59:08;11.43;;;10.53;;
3541;SDS011;1785;47.388;8.538;2023-12-20T01:01:35;12.53;;;11.33;;
3541;SDS011;1785;47.388;8.538;2023-12-20T01:04:02;12.60;;;11.40;;
3541;SDS011;1785;47.388;8.538;2023-12-20T01:06:29;11.87;;;10.77;;
3541;SDS011;1785;47.388;8.538;2023-12-20T01:08:56;12.33;;;11.23;;
3541;SDS011;1785;47.388;8.538;2023-12-20T01:11:22;13.17;;;11.80;;
3541;SDS011;1785;47.388;8.538;2023-12-20T01:13:48;12.93;;;11.57;;
3541;SDS011;1785;47.388;8.538;2023-12-20T01:16:15;13.20;;;11.90;;
3541;SDS011;1785;47.388;8.538;2023-12-20T01:18:41;14.20;;;12.90;;
3541;SDS011;1785;47.388;8.538;2023-12-20T01:21:08;13.30;;;12.10;;
3541;SDS011;1785;47.388;8.538;2023-12-20T01:23:35;12.00;;;11.00;;
3541;SDS011;1785;47.388;8.538;2023-12-20T01:26:02;12.57;;;11.53;;
3541;SDS011;1785;47.388;8.538;2023-12-20T01:28:29;14.20;;;12.90;;
3541;SDS011;1785;47.388;8.538;2023-12-20T01:30:56;12.87;;;11.67;;
3541;SDS011;1785;47.388;8.538;2023-12-20T01:33:23;14.50;;;13.00;;
3541;SDS011;1785;47.388;8.538;2023-12-20T01:35:49;16.53;;;14.93;;
3541;SDS011;1785;47.388;8.538;2023-12-20T01:38:16;14.20;;;12.70;;
3541;SDS011;1785;47.388;8.538;2023-12-20T01:40:43;14.40;;;13.10;;
3541;SDS011;1785;47.388;8.538;2023-12-20T01:43:10;14.90;;;13.50;;
3541;SDS011;1785;47.388;8.538;2023-12-20T01:45:37;15.10;;;13.60;;
3541;SDS011;1785;47.388;8.538;2023-12-20T01:48:04;13.53;;;12.43;;
3541;SDS011;1785;47.388;8.538;2023-12-20T01:50:33;13.40;;;12.30;;
3541;SDS011;1785;47.388;8.538;2023-12-20T01:53:03;13.60;;;12.30;;
3541;SDS011;1785;47.388;8.538;2023-12-20T01:55:32;14.30;;;13.00;;
3541;SDS011;1785;47.388;8.538;2023-12-20T01:58:00;14.70;;;13.30;;
3541;SDS011;1785;47.388;8.538;2023-12-20T02:00:28;13.73;;;12.63;;
3541;SDS011;1785;47.388;8.538;2023-12-20T02:02:55;13.70;;;12.50;;
3541;SDS011;1785;47.388;8.538;2023-12-20T02:05:22;14.27;;;13.07;;
3541;SDS011;1785;47.388;8.538;2023-12-20T02:07:53;14.60;;;13.20;;
3541;SDS011;1785;47.388;8.538;2023-12-20T02:10:19;12.93;;;11.70;;
3541;SDS011;1785;47.388;8.538;2023-12-20T02:12:47;14.10;;;12.80;;
3541;SDS011;1785;47.388;8.538;2023-12-20T02:15:13;17.93;;;14.47;;
3541;SDS011;1785;47.388;8.538;2023-12-20T02:17:40;14.10;;;12.70;;
3541;SDS011;1785;47.388;8.538;2023-12-20T02:20:07;14.07;;;12.80;;
3541;SDS011;1785;47.388;8.538;2023-12-20T02:22:34;14.53;;;13.20;;
3541;SDS011;1785;47.388;8.538;2023-12-20T02:25:01;13.47;;;12.27;;
3541;SDS011;1785;47.388;8.538;2023-12-20T02:27:28;13.50;;;12.10;;
3541;SDS011;1785;47.388;8.538;2023-12-20T02:29:55;13.57;;;12.30;;
3541;SDS011;1785;47.388;8.538;2023-12-20T02:32:22;14.07;;;12.80;;
3541;SDS011;1785;47.388;8.538;2023-12-20T02:34:51;13.70;;;12.13;;
3541;SDS011;1785;47.388;8.538;2023-12-20T02:37:18;12.67;;;11.50;;
3541;SDS011;1785;47.388;8.538;2023-12-20T02:39:45;13.10;;;11.83;;
3541;SDS011;1785;47.388;8.538;2023-12-20T02:42:12;13.40;;;12.10;;
3541;SDS011;1785;47.388;8.538;2023-12-20T02:44:39;13.60;;;12.40;;
3541;SDS011;1785;47.388;8.538;2023-12-20T02:47:05;12.30;;;11.30;;
3541;SDS011;1785;47.388;8.538;2023-12-20T02:49:32;12.37;;;11.27;;
3541;SDS011;1785;47.388;8.538;2023-12-20T02:51:58;12.60;;;10.97;;
3541;SDS011;1785;47.388;8.538;2023-12-20T02:54:25;10.50;;;9.70;;
3541;SDS011;1785;47.388;8.538;2023-12-20T02:56:53;10.50;;;9.60;;
3541;SDS011;1785;47.388;8.538;2023-12-20T02:59:19;10.10;;;9.10;;
3541;SDS011;1785;47.388;8.538;2023-12-20T03:01:46;10.20;;;9.20;;
3541;SDS011;1785;47.388;8.538;2023-12-20T03:04:13;10.13;;;9.13;;
3541;SDS011;1785;47.388;8.538;2023-12-20T03:06:40;10.70;;;9.73;;
3541;SDS011;1785;47.388;8.538;2023-12-20T03:09:06;9.67;;;8.77;;
3541;SDS011;1785;47.388;8.538;2023-12-20T03:11:33;12.30;;;9.90;;
3541;SDS011;1785;47.388;8.538;2023-12-20T03:14:00;11.33;;;10.27;;
3541;SDS011;1785;47.388;8.538;2023-12-20T03:16:27;10.70;;;9.87;;
3541;SDS011;1785;47.388;8.538;2023-12-20T03:18:53;10.43;;;9.50;;
3541;SDS011;1785;47.388;8.538;2023-12-20T03:21:20;9.67;;;8.93;;
3541;SDS011;1785;47.388;8.538;2023-12-20T03:23:47;11.33;;;10.33;;
3541;SDS011;1785;47.388;8.538;2023-12-20T03:26:14;10.77;;;9.93;;
3541;SDS011;1785;47.388;8.538;2023-12-20T03:28:40;11.13;;;10.23;;
3541;SDS011;1785;47.388;8.538;2023-12-20T03:31:07;12.43;;;9.37;;
3541;SDS011;1785;47.388;8.538;2023-12-20T03:33:35;10.47;;;9.53;;
3541;SDS011;1785;47.388;8.538;2023-12-20T03:36:02;11.17;;;10.00;;
3541;SDS011;1785;47.388;8.538;2023-12-20T03:38:29;10.40;;;9.50;;
3541;SDS011;1785;47.388;8.538;2023-12-20T03:40:56;11.10;;;10.10;;
3541;SDS011;1785;47.388;8.538;2023-12-20T03:43:22;10.60;;;9.63;;
3541;SDS011;1785;47.388;8.538;2023-12-20T03:45:49;10.90;;;9.80;;
3541;SDS011;1785;47.388;8.538;2023-12-20T03:48:16;11.00;;;10.10;;
3541;SDS011;1785;47.388;8.538;2023-12-20T03:50:43;11.47;;;10.30;;
3541;SDS011;1785;47.388;8.538;2023-12-20T03:53:09;10.57;;;9.67;;
3541;SDS011;1785;47.388;8.538;2023-12-20T03:55:36;11.93;;;10.83;;
3541;SDS011;1785;47.388;8.538;2023-12-20T03:58:02;10.80;;;9.70;;
3541;SDS011;1785;47.388;8.538;2023-12-20T04:00:29;10.63;;;9.73;;
3541;SDS011;1785;47.388;8.538;2023-12-20T04:02:55;12.10;;;11.00;;
3541;SDS011;1785;47.388;8.538;2023-12-20T04:05:23;12.20;;;11.10;;
3541;SDS011;1785;47.388;8.538;2023-12-20T04:07:49;12.30;;;11.10;;
3541;SDS011;1785;47.388;8.538;2023-12-20T04:10:15;11.10;;;10.13;;
3541;SDS011;1785;47.388;8.538;2023-12-20T04:12:42;11.50;;;10.33;;
3541;SDS011;1785;47.388;8.538;2023-12-20T04:15:08;12.23;;;11.17;;
3541;SDS011;1785;47.388;8.538;2023-12-20T04:17:37;12.10;;;11.00;;
3541;SDS011;1785;47.388;8.538;2023-12-20T04:20:03;11.60;;;10.60;;
3541;SDS011;1785;47.388;8.538;2023-12-20T04:22:31;12.20;;;11.03;;
3541;SDS011;1785;47.388;8.538;2023-12-20T04:24:58;12.23;;;10.70;;
3541;SDS011;1785;47.388;8.538;2023-12-20T04:27:25;11.20;;;10.20;;
3541;SDS011;1785;47.388;8.538;2023-12-20T04:29:51;10.30;;;9.40;;
3541;SDS011;1785;47.388;8.538;2023-12-20T04:32:18;11.77;;;10.67;;
3541;SDS011;1785;47.388;8.538;2023-12-20T04:34:45;10.17;;;9.23;;
3541;SDS011;1785;47.388;8.538;2023-12-20T04:37:11;9.83;;;8.97;;
3541;SDS011;1785;47.388;8.538;2023-12-20T04:39:39;9.63;;;8.93;;
3541;SDS011;1785;47.388;8.538;2023-12-20T04:42:06;10.30;;;9.50;;
3541;SDS011;1785;47.388;8.538;2023-12-20T04:44:33;10.00;;;9.10;;
3541;SDS011;1785;47.388;8.538;2023-12-20T04:47:00;10.17;;;9.37;;
3541;SDS011;1785;47.388;8.538;2023-12-20T04:49:27;10.80;;;9.57;;
3541;SDS011;1785;47.388;8.538;2023-12-20T04:51:53;11.00;;;10.10;;
3541;SDS011;1785;47.388;8.538;2023-12-20T04:54:20;10.50;;;9.50;;
3541;SDS011;1785;47.388;8.538;2023-12-20T04:56:49;11.57;;;10.53;;
3541;SDS011;1785;47.388;8.538;2023-12-20T04:59:15;9.43;;;8.53;;
3541;SDS011;1785;47.388;8.538;2023-12-20T05:01:41;9.60;;;8.70;;
3541;SDS011;1785;47.388;8.538;2023-12-20T05:04:09;9.33;;;8.53;;
3541;SDS011;1785;47.388;8.538;2023-12-20T05:06:36;9.80;;;8.93;;
3541;SDS011;1785;47.388;8.538;2023-12-20T05:09:02;8.60;;;7.90;;
3541;SDS011;1785;47.388;8.538;2023-12-20T05:11:29;8.70;;;7.90;;
3541;SDS011;1785;47.388;8.538;2023-12-20T05:13:57;8.97;;;8.27;;
3541;SDS011;1785;47.388;8.538;2023-12-20T05:16:23;9.20;;;8.30;;
3541;SDS011;1785;47.388;8.538;2023-12-20T05:18:50;10.23;;;9.43;;
3541;SDS011;1785;47.388;8.538;2023-12-20T05:21:17;10.27;;;9.47;;
3541;SDS011;1785;47.388;8.538;2023-12-20T05:23:44;9.83;;;9.03;;
3541;SDS011;1785;47.388;8.538;2023-12-20T05:26:11;11.60;;;10.57;;
3541;SDS011;1785;47.388;8.538;2023-12-20T05:28:39;10.50;;;9.40;;
3541;SDS011;1785;47.388;8.538;2023-12-20T05:31:06;10.60;;;9.60;;
3541;SDS011;1785;47.388;8.538;2023-12-20T05:33:33;10.03;;;9.03;;
3541;SDS011;1785;47.388;8.538;2023-12-20T05:35:59;9.43;;;8.53;;
3541;SDS011;1785;47.388;8.538;2023-12-20T05:38:26;9.93;;;9.00;;
3541;SDS011;1785;47.388;8.538;2023-12-20T05:40:53;9.63;;;8.73;;
3541;SDS011;1785;47.388;8.538;2023-12-20T05:43:20;9.30;;;8.40;;
3541;SDS011;1785;47.388;8.538;2023-12-20T05:45:47;9.50;;;7.70;;
3541;SDS011;1785;47.388;8.538;2023-12-20T05:48:14;9.20;;;8.40;;
3541;SDS011;1785;47.388;8.538;2023-12-20T05:50:41;8.47;;;7.80;;
3541;SDS011;1785;47.388;8.538;2023-12-20T05:53:08;8.90;;;8.10;;
3541;SDS011;1785;47.388;8.538;2023-12-20T05:55:34;9.00;;;8.30;;
3541;SDS011;1785;47.388;8.538;2023-12-20T05:58:01;8.73;;;8.03;;
3541;SDS011;1785;47.388;8.538;2023-12-20T06:00:28;9.27;;;8.40;;
3541;SDS011;1785;47.388;8.538;2023-12-20T06:02:54;9.63;;;8.80;;
3541;SDS011;1785;47.388;8.538;2023-12-20T06:05:21;9.60;;;8.80;;
3541;SDS011;1785;47.388;8.538;2023-12-20T06:07:48;9.70;;;8.93;;
3541;SDS011;1785;47.388;8.538;2023-12-20T06:10:18;9.30;;;8.33;;
3541;SDS011;1785;47.388;8.538;2023-12-20T06:12:46;8.30;;;7.70;;
3541;SDS011;1785;47.388;8.538;2023-12-20T06:15:15;9.10;;;8.00;;
3541;SDS011;1785;47.388;8.538;2023-12-20T06:17:41;9.50;;;8.60;;
3541;SDS011;1785;47.388;8.538;2023-12-20T06:20:09;8.93;;;8.20;;
3541;SDS011;1785;47.388;8.538;2023-12-20T06:22:38;9.83;;;8.97;;
3541;SDS011;1785;47.388;8.538;2023-12-20T06:25:05;8.63;;;8.03;;
3541;SDS011;1785;47.388;8.538;2023-12-20T06:27:32;10.30;;;9.40;;
3541;SDS011;1785;47.388;8.538;2023-12-20T06:29:59;9.13;;;8.33;;
3541;SDS011;1785;47.388;8.538;2023-12-20T06:32:27;9.27;;;8.47;;
3541;SDS011;1785;47.388;8.538;2023-12-20T06:34:54;8.87;;;8.07;;
3541;SDS011;1785;47.388;8.538;2023-12-20T06:37:20;9.53;;;8.73;;
3541;SDS011;1785;47.388;8.538;2023-12-20T06:39:48;9.27;;;8.43;;
3541;SDS011;1785;47.388;8.538;2023-12-20T06:42:14;7.80;;;7.20;;
3541;SDS011;1785;47.388;8.538;2023-12-20T06:44:41;8.73;;;8.03;;
3541;SDS011;1785;47.388;8.538;2023-12-20T06:47:11;9.87;;;8.40;;
3541;SDS011;1785;47.388;8.538;2023-12-20T06:49:39;8.23;;;7.53;;
3541;SDS011;1785;47.388;8.538;2023-12-20T06:52:06;9.20;;;8.40;;
3541;SDS011;1785;47.388;8.538;2023-12-20T06:54:33;9.37;;;8.47;;
3541;SDS011;1785;47.388;8.538;2023-12-20T06:57:01;9.60;;;8.90;;
3541;SDS011;1785;47.388;8.538;2023-12-20T06:59:28;8.83;;;8.10;;
3541;SDS011;1785;47.388;8.538;2023-12-20T07:01:55;8.97;;;8.17;;
3541;SDS011;1785;47.388;8.538;2023-12-20T07:04:21;8.43;;;7.20;;
3541;SDS011;1785;47.388;8.538;2023-12-20T07:06:48;8.70;;;8.00;;
3541;SDS011;1785;47.388;8.538;2023-12-20T07:09:16;8.50;;;7.80;;
3541;SDS011;1785;47.388;8.538;2023-12-20T07:11:43;8.23;;;7.53;;
3541;SDS011;1785;47.388;8.538;2023-12-20T07:14:10;9.13;;;8.20;;
3541;SDS011;1785;47.388;8.538;2023-12-20T07:16:37;9.80;;;8.93;;
3541;SDS011;1785;47.388;8.538;2023-12-20T07:19:03;7.97;;;7.23;;
3541;SDS011;1785;47.388;8.538;2023-12-20T07:21:29;8.30;;;7.60;;
3541;SDS011;1785;47.388;8.538;2023-12-20T07:23:57;8.67;;;7.87;;
3541;SDS011;1785;47.388;8.538;2023-12-20T07:26:23;7.97;;;7.37;;
3541;SDS011;1785;47.388;8.538;2023-12-20T07:28:49;8.10;;;7.40;;
3541;SDS011;1785;47.388;8.538;2023-12-20T07:31:16;8.07;;;7.37;;
3541;SDS011;1785;47.388;8.538;2023-12-20T07:33:43;8.10;;;7.50;;
3541;SDS011;1785;47.388;8.538;2023-12-20T07:36:09;9.23;;;8.43;;
3541;SDS011;1785;47.388;8.538;2023-12-20T07:38:36;8.87;;;8.07;;
3541;SDS011;1785;47.388;8.538;2023-12-20T07:41:03;8.13;;;7.53;;
3541;SDS011;1785;47.388;8.538;2023-12-20T07:43:30;9.63;;;8.83;;
3541;SDS011;1785;47.388;8.538;2023-12-20T07:45:56;10.57;;;9.40;;
3541;SDS011;1785;47.388;8.538;2023-12-20T07:48:23;10.50;;;8.67;;
3541;SDS011;1785;47.388;8.538;2023-12-20T07:50:50;9.43;;;8.50;;
3541;SDS011;1785;47.388;8.538;2023-12-20T07:53:19;11.00;;;9.10;;
3541;SDS011;1785;47.388;8.538;2023-12-20T07:55:45;8.87;;;8.07;;
3541;SDS011;1785;47.388;8.538;2023-12-20T07:58:12;8.40;;;7.80;;
3541;SDS011;1785;47.388;8.538;2023-12-20T08:00:38;9.00;;;8.20;;
3541;SDS011;1785;47.388;8.538;2023-12-20T08:03:04;9.17;;;8.40;;
3541;SDS011;1785;47.388;8.538;2023-12-20T08:05:32;9.47;;;8.73;;
3541;SDS011;1785;47.388;8.538;2023-12-20T08:07:59;8.77;;;7.97;;
3541;SDS011;1785;47.388;8.538;2023-12-20T08:10:25;10.63;;;8.50;;
3541;SDS011;1785;47.388;8.538;2023-12-20T08:12:54;11.13;;;10.10;;
3541;SDS011;1785;47.388;8.538;2023-12-20T08:15:21;8.90;;;8.27;;
3541;SDS011;1785;47.388;8.538;2023-12-20T08:17:47;8.17;;;7.57;;
3541;SDS011;1785;47.388;8.538;2023-12-20T08:20:16;11.60;;;8.90;;
3541;SDS011;1785;47.388;8.538;2023-12-20T08:22:43;10.10;;;9.23;;
3541;SDS011;1785;47.388;8.538;2023-12-20T08:25:10;9.10;;;8.30;;
3541;SDS011;1785;47.388;8.538;2023-12-20T08:27:38;9.03;;;8.23;;
3541;SDS011;1785;47.388;8.538;2023-12-20T08:30:05;8.53;;;7.90;;
3541;SDS011;1785;47.388;8.538;2023-12-20T08:32:34;8.90;;;8.20;;
3541;SDS011;1785;47.388;8.538;2023-12-20T08:35:01;8.60;;;7.90;;
3541;SDS011;1785;47.388;8.538;2023-12-20T08:37:28;7.60;;;6.90;;
3541;SDS011;1785;47.388;8.538;2023-12-20T08:39:56;7.10;;;6.50;;
3541;SDS011;1785;47.388;8.538;2023-12-20T08:42:23;7.20;;;6.70;;
3541;SDS011;1785;47.388;8.538;2023-12-20T08:44:49;7.17;;;6.47;;
3541;SDS011;1785;47.388;8.538;2023-12-20T08:47:16;6.27;;;5.83;;
3541;SDS011;1785;47.388;8.538;2023-12-20T08:49:43;7.10;;;6.60;;
3541;SDS011;1785;47.388;8.538;2023-12-20T08:52:11;7.00;;;6.40;;
3541;SDS011;1785;47.388;8.538;2023-12-20T08:54:38;6.30;;;5.80;;
3541;SDS011;1785;47.388;8.538;2023-12-20T08:57:05;7.20;;;6.50;;
3541;SDS011;1785;47.388;8.538;2023-12-20T08:59:32;7.17;;;6.67;;
3541;SDS011;1785;47.388;8.538;2023-12-20T09:01:58;7.97;;;7.37;;
3541;SDS011;1785;47.388;8.538;2023-12-20T09:04:25;6.77;;;6.27;;
3541;SDS011;1785;47.388;8.538;2023-12-20T09:06:51;7.63;;;6.93;;
3541;SDS011;1785;47.388;8.538;2023-12-20T09:09:17;8.00;;;7.27;;
3541;SDS011;1785;47.388;8.538;2023-12-20T09:11:44;6.27;;;5.77;;
3541;SDS011;1785;47.388;8.538;2023-12-20T09:14:13;7.70;;;7.10;;
3541;SDS011;1785;47.388;8.538;2023-12-20T09:16:40;8.30;;;7.53;;
3541;SDS011;1785;47.388;8.538;2023-12-20T09:19:07;8.03;;;7.20;;
3541;SDS011;1785;47.388;8.538;2023-12-20T09:21:33;7.90;;;7.20;;
3541;SDS011;1785;47.388;8.538;2023-12-20T09:24:00;7.47;;;6.87;;
3541;SDS011;1785;47.388;8.538;2023-12-20T09:26:26;7.00;;;6.30;;
3541;SDS011;1785;47.388;8.538;2023-12-20T09:28:53;7.93;;;7.33;;
3541;SDS011;1785;47.388;8.538;2023-12-20T09:31:20;7.83;;;7.20;;
3541;SDS011;1785;47.388;8.538;2023-12-20T09:33:47;10.70;;;8.03;;
3541;SDS011;1785;47.388;8.538;2023-12-20T09:36:14;8.53;;;7.43;;
3541;SDS011;1785;47.388;8.538;2023-12-20T09:38:40;8.50;;;7.87;;
3541;SDS011;1785;47.388;8.538;2023-12-20T09:41:08;9.07;;;8.17;;
3541;SDS011;1785;47.388;8.538;2023-12-20T09:43:35;7.23;;;6.70;;
3541;SDS011;1785;47.388;8.538;2023-12-20T09:46:04;7.27;;;6.67;;
3541;SDS011;1785;47.388;8.538;2023-12-20T09:48:32;8.00;;;7.40;;
3541;SDS011;1785;47.388;8.538;2023-12-20T09:51:00;8.10;;;7.40;;
3541;SDS011;1785;47.388;8.538;2023-12-20T09:53:26;7.20;;;6.70;;
3541;SDS011;1785;47.388;8.538;2023-12-20T09:55:55;8.03;;;7.33;;
3541;SDS011;1785;47.388;8.538;2023-12-20T09:58:25;7.00;;;6.40;;
3541;SDS011;1785;47.388;8.538;2023-12-20T10:00:51;7.87;;;7.17;;
3541;SDS011;1785;47.388;8.538;2023-12-20T10:03:19;7.30;;;6.70;;
3541;SDS011;1785;47.388;8.538;2023-12-20T10:05:52;7.70;;;7.00;;
3541;SDS011;1785;47.388;8.538;2023-12-20T10:08:22;8.50;;;7.80;;
3541;SDS011;1785;47.388;8.538;2023-12-20T10:10:50;8.23;;;7.47;;
3541;SDS011;1785;47.388;8.538;2023-12-20T10:13:16;8.67;;;7.97;;
3541;SDS011;1785;47.388;8.538;2023-12-20T10:15:42;8.60;;;7.80;;
3541;SDS011;1785;47.388;8.538;2023-12-20T10:18:11;8.93;;;8.13;;
3541;SDS011;1785;47.388;8.538;2023-12-20T10:20:39;10.00;;;8.10;;
3541;SDS011;1785;47.388;8.538;2023-12-20T10:23:07;8.83;;;8.03;;
3541;SDS011;1785;47.388;8.538;2023-12-20T10:25:35;10.87;;;9.47;;
3541;SDS011;1785;47.388;8.538;2023-12-20T10:28:11;8.23;;;7.47;;
3541;SDS011;1785;47.388;8.538;2023-12-20T10:30:38;8.87;;;8.07;;
3541;SDS011;1785;47.388;8.538;2023-12-20T10:33:06;8.40;;;7.60;;
3541;SDS011;1785;47.388;8.538;2023-12-20T10:35:34;7.97;;;7.30;;
3541;SDS011;1785;47.388;8.538;2023-12-20T10:38:02;8.57;;;7.77;;
3541;SDS011;1785;47.388;8.538;2023-12-20T10:40:31;9.60;;;8.07;;
3541;SDS011;1785;47.388;8.538;2023-12-20T10:42:59;9.13;;;8.20;;
3541;SDS011;1785;47.388;8.538;2023-12-20T10:45:27;9.10;;;8.27;;
3541;SDS011;1785;47.388;8.538;2023-12-20T10:47:54;9.33;;;8.40;;
3541;SDS011;1785;47.388;8.538;2023-12-20T10:50:24;7.30;;;6.70;;
3541;SDS011;1785;47.388;8.538;2023-12-20T10:52:51;8.20;;;7.50;;
3541;SDS011;1785;47.388;8.538;2023-12-20T10:55:21;11.40;;;7.97;;
3541;SDS011;1785;47.388;8.538;2023-12-20T10:57:49;8.03;;;7.33;;
3541;SDS011;1785;47.388;8.538;2023-12-20T11:00:18;7.70;;;7.10;;
3541;SDS011;1785;47.388;8.538;2023-12-20T11:02:46;7.27;;;6.60;;
3541;SDS011;1785;47.388;8.538;2023-12-20T11:05:21;7.33;;;6.73;;
3541;SDS011;1785;47.388;8.538;2023-12-20T11:07:55;7.80;;;7.10;;
3541;SDS011;1785;47.388;8.538;2023-12-20T11:10:29;7.10;;;6.50;;
3541;SDS011;1785;47.388;8.538;2023-12-20T11:13:01;7.47;;;6.77;;
3541;SDS011;1785;47.388;8.538;2023-12-20T11:15:35;6.43;;;5.90;;
3541;SDS011;1785;47.388;8.538;2023-12-20T11:18:03;7.50;;;6.70;;
3541;SDS011;1785;47.388;8.538;2023-12-20T11:20:35;6.90;;;6.40;;
3541;SDS011;1785;47.388;8.538;2023-12-20T11:23:03;7.20;;;6.47;;
3541;SDS011;1785;47.388;8.538;2023-12-20T11:25:30;6.33;;;5.80;;
3541;SDS011;1785;47.388;8.538;2023-12-20T11:28:14;6.53;;;6.03;;
3541;SDS011;1785;47.388;8.538;2023-12-20T11:30:46;6.43;;;5.93;;
3541;SDS011;1785;47.388;8.538;2023-12-20T11:33:13;7.27;;;6.70;;
3541;SDS011;1785;47.388;8.538;2023-12-20T11:35:41;6.47;;;6.00;;
3541;SDS011;1785;47.388;8.538;2023-12-20T11:38:08;6.00;;;5.50;;
3541;SDS011;1785;47.388;8.538;2023-12-20T11:40:34;11.50;;;7.03;;
3541;SDS011;1785;47.388;8.538;2023-12-20T11:43:01;8.87;;;7.17;;
3541;SDS011;1785;47.388;8.538;2023-12-20T11:45:29;6.53;;;6.03;;
3541;SDS011;1785;47.388;8.538;2023-12-20T11:47:57;6.60;;;6.10;;
3541;SDS011;1785;47.388;8.538;2023-12-20T11:50:24;6.97;;;6.47;;
3541;SDS011;1785;47.388;8.538;2023-12-20T11:52:51;6.07;;;5.60;;
3541;SDS011;1785;47.388;8.538;2023-12-20T11:55:18;5.13;;;4.80;;
3541;SDS011;1785;47.388;8.538;2023-12-20T11:57:44;4.93;;;4.53;;
3541;SDS011;1785;47.388;8.538;2023-12-20T12:00:12;5.83;;;5.30;;
3541;SDS011;1785;47.388;8.538;2023-12-20T12:02:40;5.10;;;4.70;;
3541;SDS011;1785;47.388;8.538;2023-12-20T12:05:07;4.80;;;4.50;;
3541;SDS011;1785;47.388;8.538;2023-12-20T12:07:34;4.33;;;4.10;;
3541;SDS011;1785;47.388;8.538;2023-12-20T12:10:01;3.90;;;3.60;;
3541;SDS011;1785;47.388;8.538;2023-12-20T12:12:28;3.83;;;3.53;;
3541;SDS011;1785;47.388;8.538;2023-12-20T12:14:56;3.27;;;3.07;;
3541;SDS011;1785;47.388;8.538;2023-12-20T12:17:23;3.43;;;3.23;;
3541;SDS011;1785;47.388;8.538;2023-12-20T12:19:51;3.57;;;3.37;;
3541;SDS011;1785;47.388;8.538;2023-12-20T12:22:29;5.80;;;5.40;;
3541;SDS011;1785;47.388;8.538;2023-12-20T12:24:58;5.30;;;4.90;;
3541;SDS011;1785;47.388;8.538;2023-12-20T12:27:27;3.50;;;3.30;;
3541;SDS011;1785;47.388;8.538;2023-12-20T12:30:00;4.10;;;3.80;;
3541;SDS011;1785;47.388;8.538;2023-12-20T12:32:28;3.93;;;3.30;;
3541;SDS011;1785;47.388;8.538;2023-12-20T12:34:55;3.70;;;3.50;;
3541;SDS011;1785;47.388;8.538;2023-12-20T12:37:22;3.37;;;3.17;;
3541;SDS011;1785;47.388;8.538;2023-12-20T12:39:49;4.33;;;4.03;;
3541;SDS011;1785;47.388;8.538;2023-12-20T12:42:18;2.60;;;2.50;;
3541;SDS011;1785;47.388;8.538;2023-12-20T12:44:46;2.90;;;2.80;;
3541;SDS011;1785;47.388;8.538;2023-12-20T12:47:13;3.37;;;3.17;;
3541;SDS011;1785;47.388;8.538;2023-12-20T12:49:40;3.40;;;3.20;;
3541;SDS011;1785;47.388;8.538;2023-12-20T12:52:07;3.17;;;2.97;;
3541;SDS011;1785;47.388;8.538;2023-12-20T12:54:34;3.00;;;2.33;;
3541;SDS011;1785;47.388;8.538;2023-12-20T12:57:01;2.77;;;2.57;;
3541;SDS011;1785;47.388;8.538;2023-12-20T12:59:28;3.10;;;2.77;;
3541;SDS011;1785;47.388;8.538;2023-12-20T13:01:54;2.97;;;2.70;;
3541;SDS011;1785;47.388;8.538;2023-12-20T13:04:22;2.83;;;2.70;;
3541;SDS011;1785;47.388;8.538;2023-12-20T13:06:48;3.30;;;3.10;;
3541;SDS011;1785;47.388;8.538;2023-12-20T13:09:16;3.30;;;3.10;;
3541;SDS011;1785;47.388;8.538;2023-12-20T13:11:44;3.13;;;2.93;;
3541;SDS011;1785;47.388;8.538;2023-12-20T13:14:10;2.63;;;2.43;;
3541;SDS011;1785;47.388;8.538;2023-12-20T13:16:40;2.83;;;2.63;;
3541;SDS011;1785;47.388;8.538;2023-12-20T13:19:07;2.83;;;2.63;;
3541;SDS011;1785;47.388;8.538;2023-12-20T13:21:35;3.10;;;2.03;;
3541;SDS011;1785;47.388;8.538;2023-12-20T13:24:02;2.73;;;2.63;;
3541;SDS011;1785;47.388;8.538;2023-12-20T13:26:30;6.90;;;2.67;;
3541;SDS011;1785;47.388;8.538;2023-12-20T13:28:56;3.23;;;2.90;;
3541;SDS011;1785;47.388;8.538;2023-12-20T13:31:23;3.03;;;2.83;;
3541;SDS011;1785;47.388;8.538;2023-12-20T13:33:50;2.83;;;2.73;;
3541;SDS011;1785;47.388;8.538;2023-12-20T13:36:17;3.30;;;3.03;;
3541;SDS011;1785;47.388;8.538;2023-12-20T13:38:44;3.93;;;3.17;;
3541;SDS011;1785;47.388;8.538;2023-12-20T13:41:10;3.13;;;2.90;;
3541;SDS011;1785;47.388;8.538;2023-12-20T13:43:38;5.80;;;3.43;;
3541;SDS011;1785;47.388;8.538;2023-12-20T13:46:05;3.50;;;3.20;;
3541;SDS011;1785;47.388;8.538;2023-12-20T13:48:31;3.57;;;3.27;;
3541;SDS011;1785;47.388;8.538;2023-12-20T13:50:59;3.60;;;3.40;;
3541;SDS011;1785;47.388;8.538;2023-12-20T13:53:25;3.40;;;3.10;;
3541;SDS011;1785;47.388;8.538;2023-12-20T13:55:52;3.50;;;3.30;;
3541;SDS011;1785;47.388;8.538;2023-12-20T13:58:19;3.97;;;3.60;;
3541;SDS011;1785;47.388;8.538;2023-12-20T14:00:47;3.53;;;3.30;;
3541;SDS011;1785;47.388;8.538;2023-12-20T14:03:13;3.50;;;3.03;;
3541;SDS011;1785;47.388;8.538;2023-12-20T14:05:40;5.50;;;3.23;;
3541;SDS011;1785;47.388;8.538;2023-12-20T14:08:06;3.13;;;2.93;;
3541;SDS011;1785;47.388;8.538;2023-12-20T14:10:34;3.10;;;2.90;;
3541;SDS011;1785;47.388;8.538;2023-12-20T14:13:01;8.93;;;3.33;;
3541;SDS011;1785;47.388;8.538;2023-12-20T14:15:28;4.47;;;3.20;;
3541;SDS011;1785;47.388;8.538;2023-12-20T14:17:56;3.00;;;2.70;;
3541;SDS011;1785;47.388;8.538;2023-12-20T14:20:22;2.83;;;2.53;;
3541;SDS011;1785;47.388;8.538;2023-12-20T14:22:49;4.23;;;2.60;;
3541;SDS011;1785;47.388;8.538;2023-12-20T14:25:15;4.80;;;2.57;;
3541;SDS011;1785;47.388;8.538;2023-12-20T14:27:42;2.60;;;2.40;;
3541;SDS011;1785;47.388;8.538;2023-12-20T14:30:09;3.07;;;2.87;;
3541;SDS011;1785;47.388;8.538;2023-12-20T14:32:39;3.33;;;2.80;;
3541;SDS011;1785;47.388;8.538;2023-12-20T14:35:06;2.63;;;2.43;;
3541;SDS011;1785;47.388;8.538;2023-12-20T14:37:33;3.80;;;2.70;;
3541;SDS011;1785;47.388;8.538;2023-12-20T14:40:00;2.50;;;2.30;;
3541;SDS011;1785;47.388;8.538;2023-12-20T14:42:26;2.80;;;2.60;;
3541;SDS011;1785;47.388;8.538;2023-12-20T14:44:53;2.40;;;2.30;;
3541;SDS011;1785;47.388;8.538;2023-12-20T14:47:20;2.80;;;2.67;;
3541;SDS011;1785;47.388;8.538;2023-12-20T14:49:48;2.90;;;2.70;;
3541;SDS011;1785;47.388;8.538;2023-12-20T14:52:15;4.17;;;2.73;;
3541;SDS011;1785;47.388;8.538;2023-12-20T14:54:43;3.03;;;2.83;;
3541;SDS011;1785;47.388;8.538;2023-12-20T14:57:09;4.20;;;3.00;;
3541;SDS011;1785;47.388;8.538;2023-12-20T14:59:36;6.13;;;3.70;;
3541;SDS011;1785;47.388;8.538;2023-12-20T15:02:02;5.07;;;3.30;;
3541;SDS011;1785;47.388;8.538;2023-12-20T15:04:30;5.93;;;3.20;;
3541;SDS011;1785;47.388;8.538;2023-12-20T15:06:56;7.87;;;3.33;;